»·PEaware :: N1180M KHHR-KPMD

N1180M :: KHHR-KPMD

FLIGHT INFORMATION

Flight Status: Arrived
Operator: Privately registered:
United States
More flights under this callsign
Pilot: Anonymous 33001 (33001)
Aircraft: CESSNA 172 SKYHAWK
(C172)
More flights by this aircraft type
Origin: KHHR Northrop/Hawthorne Mun
United States
Destination: KPMD Palmdale AF Plant 42
United States
More flights between these airports :: More routes between these airports
Route: SPACX2 SPACX LAX V165 LANGE V518 PMD
File this flight plan on PilotEdge
Remarks: / / SPACX2 - ILS RWY 25
Altitude:
(Current/Filed)
9,000ft
Speed:
(Current/Filed)
105kts
Departed: 31-Jan-22 04:15 PM
Arrived: 31-Jan-22 05:11 PM
Distance/Time
Traveled:
44nm/0:56
Distance/Time
To Go:
Arrived

Flight Plot

Page will automatically refresh every two minutes.

Flight plan parsing failed; only flown route is shown


Map Options




Map Legend


Flown Route
Filed Route
Departure Airport
Arrival Airport
Navaid (VOR, NDB)
Fix

Horizontal Profiles

Position Reports

Time Latitude Longitude Heading Altitude Ground
Speed
31-Jan-22 16:01 33.921747 -118.334439 339 64ft 0kts
31-Jan-22 16:03 33.921747 -118.334439 339 64ft 0kts
31-Jan-22 16:04 33.921747 -118.334439 339 64ft 0kts
31-Jan-22 16:05 33.921747 -118.334439 339 64ft 0kts
31-Jan-22 16:06 33.921747 -118.334439 339 64ft 0kts
31-Jan-22 16:07 33.921747 -118.334439 339 64ft 0kts
31-Jan-22 16:08 33.921747 -118.334439 339 64ft 0kts
31-Jan-22 16:09 33.922099 -118.334427 18 63ft 0kts
31-Jan-22 16:10 33.922537 -118.333045 85 64ft 2kts
31-Jan-22 16:11 33.922642 -118.331056 88 69ft 6kts
31-Jan-22 16:12 33.922699 -118.329347 88 68ft 8kts
31-Jan-22 16:13 33.922725 -118.327428 73 68ft 0kts
31-Jan-22 16:14 33.922796 -118.327232 21 68ft 0kts
31-Jan-22 16:15 33.923112 -118.329046 267 68ft 44kts
31-Jan-22 16:16 33.918316 -118.353727 223 665ft 90kts
31-Jan-22 16:16 33.900132 -118.368335 212 1271ft 98kts
31-Jan-22 16:18 33.873354 -118.390949 218 2056ft 104kts
31-Jan-22 16:19 33.850397 -118.413824 221 2584ft 110kts
31-Jan-22 16:20 33.827700 -118.437977 223 3118ft 110kts
31-Jan-22 16:21 33.802072 -118.452598 142 3513ft 114kts
31-Jan-22 16:21 33.809736 -118.429032 9 3805ft 114kts
31-Jan-22 16:22 33.841161 -118.427462 356 4160ft 116kts
31-Jan-22 16:24 33.878044 -118.424601 358 4642ft 115kts
31-Jan-22 16:25 33.909579 -118.428223 356 5009ft 114kts
31-Jan-22 16:25 33.936197 -118.430309 355 5255ft 117kts
31-Jan-22 16:26 33.968205 -118.432344 356 5592ft 116kts
31-Jan-22 16:27 33.999755 -118.433756 355 5963ft 115kts
31-Jan-22 16:28 34.031440 -118.434289 359 6305ft 114kts
31-Jan-22 16:30 34.067766 -118.437713 352 6704ft 112kts
31-Jan-22 16:30 34.093467 -118.437652 354 7002ft 110kts
31-Jan-22 16:31 34.123824 -118.438588 350 7321ft 106kts
31-Jan-22 16:32 34.152729 -118.441139 352 7751ft 103kts
31-Jan-22 16:33 34.181854 -118.441214 350 8142ft 103kts
31-Jan-22 16:34 34.210283 -118.446047 348 8504ft 104kts
31-Jan-22 16:35 34.239308 -118.447159 347 8860ft 103kts
31-Jan-22 16:36 34.269008 -118.453095 341 9041ft 109kts
31-Jan-22 16:37 34.300820 -118.457346 354 9004ft 123kts
31-Jan-22 16:38 34.335378 -118.454556 359 8902ft 124kts
31-Jan-22 16:39 34.368697 -118.451888 357 8922ft 114kts
31-Jan-22 16:40 34.389010 -118.426836 68 9090ft 105kts
31-Jan-22 16:41 34.406096 -118.394823 39 9160ft 120kts
31-Jan-22 16:42 34.432063 -118.366349 35 9070ft 128kts
31-Jan-22 16:43 34.455259 -118.332677 46 8989ft 133kts
31-Jan-22 16:44 34.479418 -118.299941 38 8951ft 128kts
31-Jan-22 16:45 34.499830 -118.263773 69 8742ft 135kts
31-Jan-22 16:46 34.510118 -118.222200 69 8865ft 127kts
31-Jan-22 16:47 34.527361 -118.185432 55 8910ft 128kts
31-Jan-22 16:48 34.545966 -118.148834 55 9027ft 128kts
31-Jan-22 16:49 34.564537 -118.111512 53 9050ft 130kts
31-Jan-22 16:50 34.583012 -118.073601 60 9053ft 133kts
31-Jan-22 16:51 34.595846 -118.031036 62 9015ft 133kts
31-Jan-22 16:52 34.616576 -117.994564 42 8974ft 130kts
31-Jan-22 16:53 34.635605 -117.956489 65 8948ft 135kts
31-Jan-22 16:54 34.641481 -117.911161 78 8905ft 137kts
31-Jan-22 16:55 34.644358 -117.864914 86 8928ft 137kts
31-Jan-22 16:56 34.629832 -117.824320 138 8896ft 135kts
31-Jan-22 16:57 34.606564 -117.787886 125 8404ft 137kts
31-Jan-22 16:58 34.607735 -117.746984 35 7480ft 131kts
31-Jan-22 16:59 34.635098 -117.754507 303 6300ft 112kts
31-Jan-22 17:00 34.651678 -117.785150 277 5539ft 111kts
31-Jan-22 17:01 34.646490 -117.820714 259 4929ft 104kts
31-Jan-22 17:02 34.644401 -117.856253 267 4357ft 104kts
31-Jan-22 17:03 34.642189 -117.889810 265 4234ft 95kts
31-Jan-22 17:04 34.640686 -117.921270 267 4374ft 93kts
31-Jan-22 17:05 34.639092 -117.952942 268 4318ft 94kts
31-Jan-22 17:06 34.637812 -117.985229 262 4041ft 99kts
31-Jan-22 17:07 34.635576 -118.018670 259 3495ft 96kts
31-Jan-22 17:08 34.633869 -118.049728 269 2956ft 88kts
31-Jan-22 17:09 34.632566 -118.075614 267 2517ft 65kts
31-Jan-22 17:10 34.632091 -118.086559 266 2519ft 29kts
31-Jan-22 17:11 34.632956 -118.088883 3 2518ft 4kts
31-Jan-22 17:12 34.633979 -118.088786 3 2517ft 21kts
31-Jan-22 17:13 34.634682 -118.090708 265 2516ft 20kts
31-Jan-22 17:14 34.635560 -118.096397 0 2521ft 18kts
31-Jan-22 17:15 34.635793 -118.098376 181 2523ft 0kts
31-Jan-22 17:16 34.635793 -118.098376 181 2523ft 0kts
31-Jan-22 17:17 34.635793 -118.098376 181 2523ft 0kts

Navigation Log

Ident Type
Flight plan parsing failed, navigation log unavailable